sensor_id;sensor_type;location;lat;lon;timestamp;temperature;humidity
40534;DHT22;26233;51.894;10.192;2023-11-19T00:00:32;8.50;56.00
40534;DHT22;26233;51.894;10.192;2023-11-19T00:02:59;8.50;56.00
40534;DHT22;26233;51.894;10.192;2023-11-19T00:05:27;8.50;55.90
40534;DHT22;26233;51.894;10.192;2023-11-19T00:07:54;8.50;56.00
40534;DHT22;26233;51.894;10.192;2023-11-19T00:10:21;8.50;56.00
40534;DHT22;26233;51.894;10.192;2023-11-19T00:12:49;8.50;56.00
40534;DHT22;26233;51.894;10.192;2023-11-19T00:15:17;8.50;56.00
40534;DHT22;26233;51.894;10.192;2023-11-19T00:17:47;8.50;56.00
40534;DHT22;26233;51.894;10.192;2023-11-19T00:20:15;8.50;56.00
40534;DHT22;26233;51.894;10.192;2023-11-19T00:22:43;8.60;56.10
40534;DHT22;26233;51.894;10.192;2023-11-19T00:25:14;8.60;56.10
40534;DHT22;26233;51.894;10.192;2023-11-19T00:27:41;8.60;56.10
40534;DHT22;26233;51.894;10.192;2023-11-19T00:30:11;8.60;56.10
40534;DHT22;26233;51.894;10.192;2023-11-19T00:32:39;8.60;56.10
40534;DHT22;26233;51.894;10.192;2023-11-19T00:35:08;8.70;56.20
40534;DHT22;26233;51.894;10.192;2023-11-19T00:37:35;8.70;56.20
40534;DHT22;26233;51.894;10.192;2023-11-19T00:40:03;8.70;56.20
40534;DHT22;26233;51.894;10.192;2023-11-19T00:42:31;8.70;56.30
40534;DHT22;26233;51.894;10.192;2023-11-19T00:44:58;8.70;56.30
40534;DHT22;26233;51.894;10.192;2023-11-19T00:47:27;8.70;56.30
40534;DHT22;26233;51.894;10.192;2023-11-19T00:49:54;8.80;56.40
40534;DHT22;26233;51.894;10.192;2023-11-19T00:52:22;8.70;56.30
40534;DHT22;26233;51.894;10.192;2023-11-19T00:54:49;8.70;56.40
40534;DHT22;26233;51.894;10.192;2023-11-19T00:57:16;8.80;56.50
40534;DHT22;26233;51.894;10.192;2023-11-19T00:59:43;8.80;56.50
40534;DHT22;26233;51.894;10.192;2023-11-19T01:02:11;8.80;56.50
40534;DHT22;26233;51.894;10.192;2023-11-19T01:04:39;8.80;56.50
40534;DHT22;26233;51.894;10.192;2023-11-19T01:07:06;8.80;56.60
40534;DHT22;26233;51.894;10.192;2023-11-19T01:09:41;8.90;56.70
40534;DHT22;26233;51.894;10.192;2023-11-19T01:12:08;8.90;56.70
40534;DHT22;26233;51.894;10.192;2023-11-19T01:14:35;8.90;56.70
40534;DHT22;26233;51.894;10.192;2023-11-19T01:17:03;8.90;56.70
40534;DHT22;26233;51.894;10.192;2023-11-19T01:19:30;8.90;56.70
40534;DHT22;26233;51.894;10.192;2023-11-19T01:21:57;9.00;56.90
40534;DHT22;26233;51.894;10.192;2023-11-19T01:24:24;9.00;56.90
40534;DHT22;26233;51.894;10.192;2023-11-19T01:26:55;9.00;56.90
40534;DHT22;26233;51.894;10.192;2023-11-19T01:29:23;9.00;56.90
40534;DHT22;26233;51.894;10.192;2023-11-19T01:31:50;9.10;57.00
40534;DHT22;26233;51.894;10.192;2023-11-19T01:34:18;9.10;56.90
40534;DHT22;26233;51.894;10.192;2023-11-19T01:36:47;9.10;56.90
40534;DHT22;26233;51.894;10.192;2023-11-19T01:39:14;9.10;56.90
40534;DHT22;26233;51.894;10.192;2023-11-19T01:41:43;9.10;56.90
40534;DHT22;26233;51.894;10.192;2023-11-19T01:44:11;9.20;57.10
40534;DHT22;26233;51.894;10.192;2023-11-19T01:46:40;9.20;57.10
40534;DHT22;26233;51.894;10.192;2023-11-19T01:49:09;9.20;57.10
40534;DHT22;26233;51.894;10.192;2023-11-19T01:51:37;9.20;57.10
40534;DHT22;26233;51.894;10.192;2023-11-19T01:54:05;9.20;57.00
40534;DHT22;26233;51.894;10.192;2023-11-19T01:56:32;9.30;57.10
40534;DHT22;26233;51.894;10.192;2023-11-19T01:59:00;9.30;57.20
40534;DHT22;26233;51.894;10.192;2023-11-19T02:01:29;9.30;57.20
40534;DHT22;26233;51.894;10.192;2023-11-19T02:03:58;9.30;57.20
40534;DHT22;26233;51.894;10.192;2023-11-19T02:06:26;9.40;57.30
40534;DHT22;26233;51.894;10.192;2023-11-19T02:08:53;9.40;57.20
40534;DHT22;26233;51.894;10.192;2023-11-19T02:11:20;9.40;57.20
40534;DHT22;26233;51.894;10.192;2023-11-19T02:13:47;9.40;57.20
40534;DHT22;26233;51.894;10.192;2023-11-19T02:16:16;9.40;57.20
40534;DHT22;26233;51.894;10.192;2023-11-19T02:18:44;9.40;57.20
40534;DHT22;26233;51.894;10.192;2023-11-19T02:21:11;9.40;57.20
40534;DHT22;26233;51.894;10.192;2023-11-19T02:23:40;9.40;57.20
40534;DHT22;26233;51.894;10.192;2023-11-19T02:26:14;9.40;57.30
40534;DHT22;26233;51.894;10.192;2023-11-19T02:28:47;9.40;57.30
40534;DHT22;26233;51.894;10.192;2023-11-19T02:31:14;9.40;57.30
40534;DHT22;26233;51.894;10.192;2023-11-19T02:33:41;9.40;57.30
40534;DHT22;26233;51.894;10.192;2023-11-19T02:36:09;9.40;57.30
40534;DHT22;26233;51.894;10.192;2023-11-19T02:38:36;9.40;57.40
40534;DHT22;26233;51.894;10.192;2023-11-19T02:41:04;9.40;57.40
40534;DHT22;26233;51.894;10.192;2023-11-19T02:43:32;9.40;57.50
40534;DHT22;26233;51.894;10.192;2023-11-19T02:46:02;9.40;57.50
40534;DHT22;26233;51.894;10.192;2023-11-19T02:48:32;9.40;57.60
40534;DHT22;26233;51.894;10.192;2023-11-19T02:51:00;9.40;57.70
40534;DHT22;26233;51.894;10.192;2023-11-19T02:53:28;9.40;57.70
40534;DHT22;26233;51.894;10.192;2023-11-19T02:55:56;9.50;57.80
40534;DHT22;26233;51.894;10.192;2023-11-19T02:58:28;9.50;57.90
40534;DHT22;26233;51.894;10.192;2023-11-19T03:00:55;9.50;57.90
40534;DHT22;26233;51.894;10.192;2023-11-19T03:03:26;9.50;58.00
40534;DHT22;26233;51.894;10.192;2023-11-19T03:06:04;9.60;58.20
40534;DHT22;26233;51.894;10.192;2023-11-19T03:08:31;9.60;58.20
40534;DHT22;26233;51.894;10.192;2023-11-19T03:10:59;9.60;58.10
40534;DHT22;26233;51.894;10.192;2023-11-19T03:13:26;9.70;58.20
40534;DHT22;26233;51.894;10.192;2023-11-19T03:15:53;9.70;58.20
40534;DHT22;26233;51.894;10.192;2023-11-19T03:18:20;9.70;58.20
40534;DHT22;26233;51.894;10.192;2023-11-19T03:20:49;9.80;58.30
40534;DHT22;26233;51.894;10.192;2023-11-19T03:23:16;9.80;58.30
40534;DHT22;26233;51.894;10.192;2023-11-19T03:25:43;9.80;58.30
40534;DHT22;26233;51.894;10.192;2023-11-19T03:28:10;9.80;58.30
40534;DHT22;26233;51.894;10.192;2023-11-19T03:30:37;9.90;58.40
40534;DHT22;26233;51.894;10.192;2023-11-19T03:33:05;9.80;58.30
40534;DHT22;26233;51.894;10.192;2023-11-19T03:35:32;9.90;58.40
40534;DHT22;26233;51.894;10.192;2023-11-19T03:38:01;9.90;58.40
40534;DHT22;26233;51.894;10.192;2023-11-19T03:40:28;10.00;57.50
40534;DHT22;26233;51.894;10.192;2023-11-19T03:42:56;9.90;58.40
40534;DHT22;26233;51.894;10.192;2023-11-19T03:45:23;10.00;57.50
40534;DHT22;26233;51.894;10.192;2023-11-19T03:47:51;10.00;57.60
40534;DHT22;26233;51.894;10.192;2023-11-19T03:50:18;10.10;57.70
40534;DHT22;26233;51.894;10.192;2023-11-19T03:52:46;10.10;57.80
40534;DHT22;26233;51.894;10.192;2023-11-19T03:55:15;10.10;57.80
40534;DHT22;26233;51.894;10.192;2023-11-19T03:57:42;10.20;57.90
40534;DHT22;26233;51.894;10.192;2023-11-19T04:00:09;10.20;57.90
40534;DHT22;26233;51.894;10.192;2023-11-19T04:02:39;10.30;58.00
40534;DHT22;26233;51.894;10.192;2023-11-19T04:05:07;10.30;58.00
40534;DHT22;26233;51.894;10.192;2023-11-19T04:07:35;10.30;57.90
40534;DHT22;26233;51.894;10.192;2023-11-19T04:10:03;10.30;57.90
40534;DHT22;26233;51.894;10.192;2023-11-19T04:12:32;10.40;58.00
40534;DHT22;26233;51.894;10.192;2023-11-19T04:14:59;10.40;58.00
40534;DHT22;26233;51.894;10.192;2023-11-19T04:17:26;10.50;58.10
40534;DHT22;26233;51.894;10.192;2023-11-19T04:19:53;10.50;58.00
40534;DHT22;26233;51.894;10.192;2023-11-19T04:22:21;10.50;58.00
40534;DHT22;26233;51.894;10.192;2023-11-19T04:24:48;10.50;58.10
40534;DHT22;26233;51.894;10.192;2023-11-19T04:27:15;10.50;58.10
40534;DHT22;26233;51.894;10.192;2023-11-19T04:29:43;10.60;58.20
40534;DHT22;26233;51.894;10.192;2023-11-19T04:32:11;10.60;58.20
40534;DHT22;26233;51.894;10.192;2023-11-19T04:34:38;10.60;58.20
40534;DHT22;26233;51.894;10.192;2023-11-19T04:37:05;10.70;58.20
40534;DHT22;26233;51.894;10.192;2023-11-19T04:39:32;10.70;58.20
40534;DHT22;26233;51.894;10.192;2023-11-19T04:41:59;10.70;58.20
40534;DHT22;26233;51.894;10.192;2023-11-19T04:44:26;10.70;58.10
40534;DHT22;26233;51.894;10.192;2023-11-19T04:46:56;10.70;58.00
40534;DHT22;26233;51.894;10.192;2023-11-19T04:49:23;10.70;57.90
40534;DHT22;26233;51.894;10.192;2023-11-19T04:51:52;10.70;58.00
40534;DHT22;26233;51.894;10.192;2023-11-19T04:54:19;10.80;58.10
40534;DHT22;26233;51.894;10.192;2023-11-19T04:56:46;10.80;58.20
40534;DHT22;26233;51.894;10.192;2023-11-19T04:59:14;10.80;58.20
40534;DHT22;26233;51.894;10.192;2023-11-19T05:01:41;10.80;58.20
40534;DHT22;26233;51.894;10.192;2023-11-19T05:04:14;10.80;58.30
40534;DHT22;26233;51.894;10.192;2023-11-19T05:06:41;10.90;58.40
40534;DHT22;26233;51.894;10.192;2023-11-19T05:09:08;10.80;58.30
40534;DHT22;26233;51.894;10.192;2023-11-19T05:11:37;10.80;58.20
40534;DHT22;26233;51.894;10.192;2023-11-19T05:14:05;10.90;58.30
40534;DHT22;26233;51.894;10.192;2023-11-19T05:16:32;10.90;58.30
40534;DHT22;26233;51.894;10.192;2023-11-19T05:19:00;10.90;58.40
40534;DHT22;26233;51.894;10.192;2023-11-19T05:21:29;10.90;58.60
40534;DHT22;26233;51.894;10.192;2023-11-19T05:23:56;10.90;58.50
40534;DHT22;26233;51.894;10.192;2023-11-19T05:26:24;11.00;59.20
40534;DHT22;26233;51.894;10.192;2023-11-19T05:28:51;11.00;58.70
40534;DHT22;26233;51.894;10.192;2023-11-19T05:31:18;11.10;58.80
40534;DHT22;26233;51.894;10.192;2023-11-19T05:33:45;11.10;58.80
40534;DHT22;26233;51.894;10.192;2023-11-19T05:36:12;11.10;58.80
40534;DHT22;26233;51.894;10.192;2023-11-19T05:38:41;11.20;59.00
40534;DHT22;26233;51.894;10.192;2023-11-19T05:41:08;11.20;59.00
40534;DHT22;26233;51.894;10.192;2023-11-19T05:43:35;11.20;59.00
40534;DHT22;26233;51.894;10.192;2023-11-19T05:46:03;11.30;59.00
40534;DHT22;26233;51.894;10.192;2023-11-19T05:48:30;11.30;59.00
40534;DHT22;26233;51.894;10.192;2023-11-19T05:50:57;11.40;59.10
40534;DHT22;26233;51.894;10.192;2023-11-19T05:53:25;11.40;59.00
40534;DHT22;26233;51.894;10.192;2023-11-19T05:55:54;11.40;58.80
40534;DHT22;26233;51.894;10.192;2023-11-19T05:58:23;11.50;58.90
40534;DHT22;26233;51.894;10.192;2023-11-19T06:00:54;11.50;58.80
40534;DHT22;26233;51.894;10.192;2023-11-19T06:03:21;11.50;58.70
40534;DHT22;26233;51.894;10.192;2023-11-19T06:05:48;11.50;58.80
40534;DHT22;26233;51.894;10.192;2023-11-19T06:08:15;11.50;58.80
40534;DHT22;26233;51.894;10.192;2023-11-19T06:10:42;11.60;59.00
40534;DHT22;26233;51.894;10.192;2023-11-19T06:13:13;11.60;59.00
40534;DHT22;26233;51.894;10.192;2023-11-19T06:15:41;11.60;59.00
40534;DHT22;26233;51.894;10.192;2023-11-19T06:18:08;11.60;59.00
40534;DHT22;26233;51.894;10.192;2023-11-19T06:20:37;11.60;59.10
40534;DHT22;26233;51.894;10.192;2023-11-19T06:23:04;11.70;59.20
40534;DHT22;26233;51.894;10.192;2023-11-19T06:25:31;11.70;59.20
40534;DHT22;26233;51.894;10.192;2023-11-19T06:27:58;11.80;59.30
40534;DHT22;26233;51.894;10.192;2023-11-19T06:30:26;11.80;59.20
40534;DHT22;26233;51.894;10.192;2023-11-19T06:32:55;11.80;59.20
40534;DHT22;26233;51.894;10.192;2023-11-19T06:35:22;11.90;59.20
40534;DHT22;26233;51.894;10.192;2023-11-19T06:37:49;11.90;59.10
40534;DHT22;26233;51.894;10.192;2023-11-19T06:40:16;11.90;59.00
40534;DHT22;26233;51.894;10.192;2023-11-19T06:42:43;11.90;59.00
40534;DHT22;26233;51.894;10.192;2023-11-19T06:45:11;11.90;59.00
40534;DHT22;26233;51.894;10.192;2023-11-19T06:47:39;11.90;59.00
40534;DHT22;26233;51.894;10.192;2023-11-19T06:50:07;11.90;59.00
40534;DHT22;26233;51.894;10.192;2023-11-19T06:52:35;12.00;59.10
40534;DHT22;26233;51.894;10.192;2023-11-19T06:55:04;12.00;59.10
40534;DHT22;26233;51.894;10.192;2023-11-19T06:57:32;12.00;59.20
40534;DHT22;26233;51.894;10.192;2023-11-19T06:59:59;12.00;59.20
40534;DHT22;26233;51.894;10.192;2023-11-19T07:02:26;11.90;59.00
40534;DHT22;26233;51.894;10.192;2023-11-19T07:04:54;12.00;59.10
40534;DHT22;26233;51.894;10.192;2023-11-19T07:07:21;12.00;59.10
40534;DHT22;26233;51.894;10.192;2023-11-19T07:09:48;12.00;59.10
40534;DHT22;26233;51.894;10.192;2023-11-19T07:12:15;12.10;59.20
40534;DHT22;26233;51.894;10.192;2023-11-19T07:14:42;12.10;59.10
40534;DHT22;26233;51.894;10.192;2023-11-19T07:17:09;12.00;59.00
40534;DHT22;26233;51.894;10.192;2023-11-19T07:19:36;12.10;59.10
40534;DHT22;26233;51.894;10.192;2023-11-19T07:22:05;12.00;59.00
40534;DHT22;26233;51.894;10.192;2023-11-19T07:24:33;12.10;59.10
40534;DHT22;26233;51.894;10.192;2023-11-19T07:27:00;12.10;59.10
40534;DHT22;26233;51.894;10.192;2023-11-19T07:29:29;12.10;59.10
40534;DHT22;26233;51.894;10.192;2023-11-19T07:31:57;12.10;59.10
40534;DHT22;26233;51.894;10.192;2023-11-19T07:34:24;12.10;59.10
40534;DHT22;26233;51.894;10.192;2023-11-19T07:36:51;12.20;59.20
40534;DHT22;26233;51.894;10.192;2023-11-19T07:39:20;12.20;59.30
40534;DHT22;26233;51.894;10.192;2023-11-19T07:41:47;12.20;59.30
40534;DHT22;26233;51.894;10.192;2023-11-19T07:44:14;12.20;59.40
40534;DHT22;26233;51.894;10.192;2023-11-19T07:46:41;12.30;59.40
40534;DHT22;26233;51.894;10.192;2023-11-19T07:49:10;12.30;59.40
40534;DHT22;26233;51.894;10.192;2023-11-19T07:51:37;12.30;59.20
40534;DHT22;26233;51.894;10.192;2023-11-19T07:54:04;12.40;59.30
40534;DHT22;26233;51.894;10.192;2023-11-19T07:56:33;12.40;59.30
40534;DHT22;26233;51.894;10.192;2023-11-19T07:59:00;12.40;59.20
40534;DHT22;26233;51.894;10.192;2023-11-19T08:01:28;12.40;59.20
40534;DHT22;26233;51.894;10.192;2023-11-19T08:03:55;12.50;59.20
40534;DHT22;26233;51.894;10.192;2023-11-19T08:06:22;12.50;59.20
40534;DHT22;26233;51.894;10.192;2023-11-19T08:08:49;12.50;59.40
40534;DHT22;26233;51.894;10.192;2023-11-19T08:11:17;12.60;59.50
40534;DHT22;26233;51.894;10.192;2023-11-19T08:13:46;12.60;59.50
40534;DHT22;26233;51.894;10.192;2023-11-19T08:16:13;12.70;59.50
40534;DHT22;26233;51.894;10.192;2023-11-19T08:18:43;12.70;59.40
40534;DHT22;26233;51.894;10.192;2023-11-19T08:21:10;12.80;59.30
40534;DHT22;26233;51.894;10.192;2023-11-19T08:23:37;12.80;59.20
40534;DHT22;26233;51.894;10.192;2023-11-19T08:26:05;12.80;59.00
40534;DHT22;26233;51.894;10.192;2023-11-19T08:28:32;12.90;59.00
40534;DHT22;26233;51.894;10.192;2023-11-19T08:31:01;12.90;59.00
40534;DHT22;26233;51.894;10.192;2023-11-19T08:33:29;12.90;58.90
40534;DHT22;26233;51.894;10.192;2023-11-19T08:35:56;12.90;58.80
40534;DHT22;26233;51.894;10.192;2023-11-19T08:38:24;13.00;58.90
40534;DHT22;26233;51.894;10.192;2023-11-19T08:40:51;13.00;58.80
40534;DHT22;26233;51.894;10.192;2023-11-19T08:43:18;13.00;58.80
40534;DHT22;26233;51.894;10.192;2023-11-19T08:45:45;13.00;58.70
40534;DHT22;26233;51.894;10.192;2023-11-19T08:48:14;13.10;58.70
40534;DHT22;26233;51.894;10.192;2023-11-19T08:50:41;13.10;58.70
40534;DHT22;26233;51.894;10.192;2023-11-19T08:53:08;13.10;58.70
40534;DHT22;26233;51.894;10.192;2023-11-19T08:55:35;13.10;58.60
40534;DHT22;26233;51.894;10.192;2023-11-19T08:58:02;13.20;58.70
40534;DHT22;26233;51.894;10.192;2023-11-19T09:00:29;13.20;58.70
40534;DHT22;26233;51.894;10.192;2023-11-19T09:02:58;13.20;58.50
40534;DHT22;26233;51.894;10.192;2023-11-19T09:05:26;13.30;58.50
40534;DHT22;26233;51.894;10.192;2023-11-19T09:07:53;13.30;58.40
40534;DHT22;26233;51.894;10.192;2023-11-19T09:10:20;13.40;58.30
40534;DHT22;26233;51.894;10.192;2023-11-19T09:12:47;13.40;58.20
40534;DHT22;26233;51.894;10.192;2023-11-19T09:15:14;13.40;58.10
40534;DHT22;26233;51.894;10.192;2023-11-19T09:17:42;13.40;58.10
40534;DHT22;26233;51.894;10.192;2023-11-19T09:20:10;13.50;58.00
40534;DHT22;26233;51.894;10.192;2023-11-19T09:22:42;13.40;57.90
40534;DHT22;26233;51.894;10.192;2023-11-19T09:25:09;13.40;57.80
40534;DHT22;26233;51.894;10.192;2023-11-19T09:27:36;13.40;57.90
40534;DHT22;26233;51.894;10.192;2023-11-19T09:30:04;13.40;57.90
40534;DHT22;26233;51.894;10.192;2023-11-19T09:32:33;13.40;58.00
40534;DHT22;26233;51.894;10.192;2023-11-19T09:35:00;13.40;58.10
40534;DHT22;26233;51.894;10.192;2023-11-19T09:37:28;13.40;58.20
40534;DHT22;26233;51.894;10.192;2023-11-19T09:39:57;13.50;58.30
40534;DHT22;26233;51.894;10.192;2023-11-19T09:42:24;13.50;58.30
40534;DHT22;26233;51.894;10.192;2023-11-19T09:44:53;13.50;58.20
40534;DHT22;26233;51.894;10.192;2023-11-19T09:47:21;13.50;58.20
40534;DHT22;26233;51.894;10.192;2023-11-19T09:49:49;13.60;58.20
40534;DHT22;26233;51.894;10.192;2023-11-19T09:52:16;13.60;58.20
40534;DHT22;26233;51.894;10.192;2023-11-19T09:54:43;13.60;58.30
40534;DHT22;26233;51.894;10.192;2023-11-19T09:57:12;13.70;58.20
40534;DHT22;26233;51.894;10.192;2023-11-19T09:59:41;13.70;58.10
40534;DHT22;26233;51.894;10.192;2023-11-19T10:02:08;13.70;58.10
40534;DHT22;26233;51.894;10.192;2023-11-19T10:04:36;13.80;58.30
40534;DHT22;26233;51.894;10.192;2023-11-19T10:07:04;13.80;58.10
40534;DHT22;26233;51.894;10.192;2023-11-19T10:09:31;13.80;58.00
40534;DHT22;26233;51.894;10.192;2023-11-19T10:11:58;13.90;58.00
40534;DHT22;26233;51.894;10.192;2023-11-19T10:14:27;13.90;58.20
40534;DHT22;26233;51.894;10.192;2023-11-19T10:16:55;13.90;57.50
40534;DHT22;26233;51.894;10.192;2023-11-19T10:19:22;13.90;57.60
40534;DHT22;26233;51.894;10.192;2023-11-19T10:21:50;13.90;57.60
40534;DHT22;26233;51.894;10.192;2023-11-19T10:24:31;14.00;57.70
40534;DHT22;26233;51.894;10.192;2023-11-19T10:26:59;13.90;57.00
40534;DHT22;26233;51.894;10.192;2023-11-19T10:29:30;14.00;57.50
40534;DHT22;26233;51.894;10.192;2023-11-19T10:31:58;14.00;57.30
40534;DHT22;26233;51.894;10.192;2023-11-19T10:34:25;14.00;57.30
40534;DHT22;26233;51.894;10.192;2023-11-19T10:36:53;14.00;57.40
40534;DHT22;26233;51.894;10.192;2023-11-19T10:39:20;14.00;57.20
40534;DHT22;26233;51.894;10.192;2023-11-19T10:41:49;14.00;57.20
40534;DHT22;26233;51.894;10.192;2023-11-19T10:47:10;14.00;57.30
40534;DHT22;26233;51.894;10.192;2023-11-19T10:49:38;14.00;57.20
40534;DHT22;26233;51.894;10.192;2023-11-19T10:52:08;14.00;57.30
40534;DHT22;26233;51.894;10.192;2023-11-19T10:54:35;14.00;57.30
40534;DHT22;26233;51.894;10.192;2023-11-19T10:57:04;14.00;57.50
40534;DHT22;26233;51.894;10.192;2023-11-19T10:59:32;14.00;57.40
40534;DHT22;26233;51.894;10.192;2023-11-19T11:02:03;14.10;57.40
40534;DHT22;26233;51.894;10.192;2023-11-19T11:04:38;14.10;58.00
40534;DHT22;26233;51.894;10.192;2023-11-19T11:07:08;14.10;57.40
40534;DHT22;26233;51.894;10.192;2023-11-19T11:09:36;14.10;57.70
40534;DHT22;26233;51.894;10.192;2023-11-19T11:12:04;14.10;57.80
40534;DHT22;26233;51.894;10.192;2023-11-19T11:14:34;14.20;57.80
40534;DHT22;26233;51.894;10.192;2023-11-19T11:17:06;14.20;57.70
40534;DHT22;26233;51.894;10.192;2023-11-19T11:19:36;14.30;57.60
40534;DHT22;26233;51.894;10.192;2023-11-19T11:22:04;14.30;57.50
40534;DHT22;26233;51.894;10.192;2023-11-19T11:27:50;14.30;57.10
40534;DHT22;26233;51.894;10.192;2023-11-19T11:30:31;14.30;57.10
40534;DHT22;26233;51.894;10.192;2023-11-19T11:33:20;14.30;57.00
40534;DHT22;26233;51.894;10.192;2023-11-19T11:36:01;14.30;56.60
40534;DHT22;26233;51.894;10.192;2023-11-19T11:38:36;14.30;56.70
40534;DHT22;26233;51.894;10.192;2023-11-19T11:41:20;14.30;57.10
40534;DHT22;26233;51.894;10.192;2023-11-19T11:43:49;14.30;56.80
40534;DHT22;26233;51.894;10.192;2023-11-19T11:46:54;14.30;57.30
40534;DHT22;26233;51.894;10.192;2023-11-19T11:49:28;14.30;56.90
40534;DHT22;26233;51.894;10.192;2023-11-19T11:52:00;14.40;57.40
40534;DHT22;26233;51.894;10.192;2023-11-19T11:54:29;14.40;57.50
40534;DHT22;26233;51.894;10.192;2023-11-19T11:57:05;14.50;57.30
40534;DHT22;26233;51.894;10.192;2023-11-19T11:59:46;14.50;56.60
40534;DHT22;26233;51.894;10.192;2023-11-19T12:02:16;14.60;56.70
40534;DHT22;26233;51.894;10.192;2023-11-19T12:04:47;14.60;57.00
40534;DHT22;26233;51.894;10.192;2023-11-19T12:07:18;14.70;57.00
40534;DHT22;26233;51.894;10.192;2023-11-19T12:09:51;14.70;57.00
40534;DHT22;26233;51.894;10.192;2023-11-19T12:12:26;14.70;56.60
40534;DHT22;26233;51.894;10.192;2023-11-19T12:15:05;14.80;56.40
40534;DHT22;26233;51.894;10.192;2023-11-19T12:17:48;14.80;56.10
40534;DHT22;26233;51.894;10.192;2023-11-19T12:20:16;14.80;56.00
40534;DHT22;26233;51.894;10.192;2023-11-19T12:22:46;14.80;56.40
40534;DHT22;26233;51.894;10.192;2023-11-19T12:25:15;14.80;56.40
40534;DHT22;26233;51.894;10.192;2023-11-19T12:27:44;14.80;56.40
40534;DHT22;26233;51.894;10.192;2023-11-19T12:30:14;14.80;56.50
40534;DHT22;26233;51.894;10.192;2023-11-19T12:32:45;14.90;56.90
40534;DHT22;26233;51.894;10.192;2023-11-19T12:35:13;15.00;57.20
40534;DHT22;26233;51.894;10.192;2023-11-19T12:37:41;15.10;57.20
40534;DHT22;26233;51.894;10.192;2023-11-19T12:40:16;15.10;56.80
40534;DHT22;26233;51.894;10.192;2023-11-19T12:42:44;15.20;56.30
40534;DHT22;26233;51.894;10.192;2023-11-19T12:45:12;15.20;56.40
40534;DHT22;26233;51.894;10.192;2023-11-19T12:47:39;15.30;56.30
40534;DHT22;26233;51.894;10.192;2023-11-19T12:50:08;15.30;56.20
40534;DHT22;26233;51.894;10.192;2023-11-19T12:52:36;15.30;56.00
40534;DHT22;26233;51.894;10.192;2023-11-19T12:55:04;15.30;55.80
40534;DHT22;26233;51.894;10.192;2023-11-19T12:57:38;15.20;55.50
40534;DHT22;26233;51.894;10.192;2023-11-19T13:00:06;15.20;55.20
40534;DHT22;26233;51.894;10.192;2023-11-19T13:02:46;15.20;55.40
40534;DHT22;26233;51.894;10.192;2023-11-19T13:05:25;15.10;54.80
40534;DHT22;26233;51.894;10.192;2023-11-19T13:08:00;15.00;55.00
40534;DHT22;26233;51.894;10.192;2023-11-19T13:10:28;15.00;55.00
40534;DHT22;26233;51.894;10.192;2023-11-19T13:13:07;14.90;55.20
40534;DHT22;26233;51.894;10.192;2023-11-19T13:15:35;14.80;54.50
40534;DHT22;26233;51.894;10.192;2023-11-19T13:18:02;14.80;55.20
40534;DHT22;26233;51.894;10.192;2023-11-19T13:20:29;14.80;55.30
40534;DHT22;26233;51.894;10.192;2023-11-19T13:22:58;14.80;55.20
40534;DHT22;26233;51.894;10.192;2023-11-19T13:25:25;14.80;55.40
40534;DHT22;26233;51.894;10.192;2023-11-19T13:27:53;14.70;55.20
40534;DHT22;26233;51.894;10.192;2023-11-19T13:30:22;14.70;55.20
40534;DHT22;26233;51.894;10.192;2023-11-19T13:32:50;14.70;55.10
40534;DHT22;26233;51.894;10.192;2023-11-19T13:35:18;14.60;55.00
40534;DHT22;26233;51.894;10.192;2023-11-19T13:37:45;14.70;55.10
40534;DHT22;26233;51.894;10.192;2023-11-19T13:40:13;14.70;55.20
40534;DHT22;26233;51.894;10.192;2023-11-19T13:42:41;14.60;55.10
40534;DHT22;26233;51.894;10.192;2023-11-19T13:45:09;14.60;55.10
40534;DHT22;26233;51.894;10.192;2023-11-19T13:47:41;14.60;55.20
40534;DHT22;26233;51.894;10.192;2023-11-19T13:50:09;14.50;55.10
40534;DHT22;26233;51.894;10.192;2023-11-19T13:52:37;14.50;55.20
40534;DHT22;26233;51.894;10.192;2023-11-19T13:55:06;14.50;55.20
40534;DHT22;26233;51.894;10.192;2023-11-19T13:57:35;14.50;55.30
40534;DHT22;26233;51.894;10.192;2023-11-19T14:00:02;14.40;55.30
40534;DHT22;26233;51.894;10.192;2023-11-19T14:02:31;14.40;55.50
40534;DHT22;26233;51.894;10.192;2023-11-19T14:05:00;14.50;55.50
40534;DHT22;26233;51.894;10.192;2023-11-19T14:07:27;14.40;55.40
40534;DHT22;26233;51.894;10.192;2023-11-19T14:09:54;14.40;55.30
40534;DHT22;26233;51.894;10.192;2023-11-19T14:12:21;14.40;55.20
40534;DHT22;26233;51.894;10.192;2023-11-19T14:14:48;14.40;55.20
40534;DHT22;26233;51.894;10.192;2023-11-19T14:17:15;14.40;55.20
40534;DHT22;26233;51.894;10.192;2023-11-19T14:19:44;14.40;55.20
40534;DHT22;26233;51.894;10.192;2023-11-19T14:22:13;14.40;55.20
40534;DHT22;26233;51.894;10.192;2023-11-19T14:24:40;14.30;55.10
40534;DHT22;26233;51.894;10.192;2023-11-19T14:27:08;14.30;55.20
40534;DHT22;26233;51.894;10.192;2023-11-19T14:29:36;14.30;55.10
40534;DHT22;26233;51.894;10.192;2023-11-19T14:32:03;14.20;55.20
40534;DHT22;26233;51.894;10.192;2023-11-19T14:34:31;14.20;55.20
40534;DHT22;26233;51.894;10.192;2023-11-19T14:36:58;14.10;55.10
40534;DHT22;26233;51.894;10.192;2023-11-19T14:39:28;14.10;55.10
40534;DHT22;26233;51.894;10.192;2023-11-19T14:41:56;14.20;55.30
40534;DHT22;26233;51.894;10.192;2023-11-19T14:44:26;14.10;55.20
40534;DHT22;26233;51.894;10.192;2023-11-19T14:46:54;14.10;55.20
40534;DHT22;26233;51.894;10.192;2023-11-19T14:49:22;14.00;55.20
40534;DHT22;26233;51.894;10.192;2023-11-19T14:51:49;14.10;55.20
40534;DHT22;26233;51.894;10.192;2023-11-19T14:54:16;14.00;55.30
40534;DHT22;26233;51.894;10.192;2023-11-19T14:56:45;14.00;55.20
40534;DHT22;26233;51.894;10.192;2023-11-19T14:59:12;14.00;55.30
40534;DHT22;26233;51.894;10.192;2023-11-19T15:01:39;14.00;55.20
40534;DHT22;26233;51.894;10.192;2023-11-19T15:04:06;14.00;55.20
40534;DHT22;26233;51.894;10.192;2023-11-19T15:06:33;14.10;55.30
40534;DHT22;26233;51.894;10.192;2023-11-19T15:09:00;13.90;55.10
40534;DHT22;26233;51.894;10.192;2023-11-19T15:11:27;14.00;55.30
40534;DHT22;26233;51.894;10.192;2023-11-19T15:13:56;13.90;55.20
40534;DHT22;26233;51.894;10.192;2023-11-19T15:16:23;13.90;55.10
40534;DHT22;26233;51.894;10.192;2023-11-19T15:18:56;13.90;55.80
40534;DHT22;26233;51.894;10.192;2023-11-19T15:21:25;13.80;55.00
40534;DHT22;26233;51.894;10.192;2023-11-19T15:23:53;13.80;55.00
40534;DHT22;26233;51.894;10.192;2023-11-19T15:26:20;13.80;55.00
40534;DHT22;26233;51.894;10.192;2023-11-19T15:28:47;13.80;55.10
40534;DHT22;26233;51.894;10.192;2023-11-19T15:31:15;13.80;55.10
40534;DHT22;26233;51.894;10.192;2023-11-19T15:33:42;13.70;55.00